Time;durP1;ratioP1;P1;durP2;ratioP2;P2;SDS_P1;SDS_P2;PMS_P1;PMS_P2;Temp;Humidity;BMP_temperature;BMP_pressure;BME280_temperature;BME280_humidity;BME280_pressure;Samples;Min_cycle;Max_cycle;Signal;HPM_P1;HPM_P2
2023/12/26 00:00:51;;;;;;;2.10;0.90;;;;;;;18.19;29.27;99037.85;105321;1252;64122;-63
2023/12/26 00:03:19;;;;;;;4.40;1.80;;;;;;;18.13;29.36;99033.11;105334;1255;60158;-61
2023/12/26 00:05:47;;;;;;;7.80;1.80;;;;;;;18.15;29.41;99032.16;105267;1254;63765;-63
2023/12/26 00:08:14;;;;;;;5.20;1.50;;;;;;;18.16;29.24;99033.35;105313;1253;59772;-60
2023/12/26 00:10:42;;;;;;;4.50;1.10;;;;;;;18.14;29.22;99051.27;105301;1253;59665;-58
2023/12/26 00:13:10;;;;;;;5.90;1.80;;;;;;;18.10;29.23;99055.21;105838;1253;62844;-62
2023/12/26 00:15:37;;;;;;;5.30;1.10;;;;;;;18.03;29.40;99054.38;105625;1257;60089;-59
2023/12/26 00:18:05;;;;;;;5.90;1.80;;;;;;;18.02;29.39;99059.63;105281;1253;64069;-60
2023/12/26 00:20:34;;;;;;;6.90;0.90;;;;;;;18.06;29.49;99062.54;105408;1259;59736;-61
2023/12/26 00:23:02;;;;;;;5.90;2.30;;;;;;;18.04;29.46;99074.09;105957;1257;59814;-59
2023/12/26 00:25:30;;;;;;;2.80;0.70;;;;;;;17.98;29.57;99079.60;105820;1253;62886;-61
2023/12/26 00:27:58;;;;;;;3.70;1.00;;;;;;;17.97;29.68;99072.89;105860;1258;60334;-62
2023/12/26 00:30:25;;;;;;;7.40;2.30;;;;;;;17.94;29.81;99077.31;105362;1253;63667;-61
2023/12/26 00:32:53;;;;;;;3.60;0.80;;;;;;;17.95;29.62;99078.58;105368;1256;59804;-60
2023/12/26 00:35:21;;;;;;;9.30;2.50;;;;;;;17.93;29.67;99082.76;106071;1258;59629;-61
2023/12/26 00:37:49;;;;;;;2.10;0.90;;;;;;;17.92;29.73;99093.34;105313;1258;64168;-60
2023/12/26 00:40:16;;;;;;;6.60;2.10;;;;;;;17.89;29.81;99092.61;105276;1253;61354;-60
2023/12/26 00:42:45;;;;;;;2.10;0.70;;;;;;;17.90;29.88;99091.75;105744;1253;64291;-61
2023/12/26 00:45:14;;;;;;;5.90;1.90;;;;;;;17.89;29.91;99092.77;105366;1255;59733;-60
2023/12/26 00:47:41;;;;;;;2.80;1.20;;;;;;;17.86;29.70;99096.72;105567;1254;59613;-59
2023/12/26 00:50:13;;;;;;;7.30;2.20;;;;;;;17.87;29.72;99097.98;105419;1254;62857;-61
2023/12/26 00:52:42;;;;;;;3.00;0.50;;;;;;;17.85;29.68;99095.17;105673;1253;61320;-60
2023/12/26 00:55:10;;;;;;;9.40;1.70;;;;;;;17.82;29.44;99089.95;105794;1253;64429;-58
2023/12/26 00:57:37;;;;;;;6.40;2.20;;;;;;;17.78;29.40;99104.92;105550;1252;59787;-57
2023/12/26 01:00:06;;;;;;;3.80;0.70;;;;;;;17.67;29.32;99112.17;105622;1253;59672;-57
2023/12/26 01:02:33;;;;;;;3.60;0.60;;;;;;;17.78;29.29;99115.43;106473;1253;62960;-58
2023/12/26 01:05:01;;;;;;;4.00;1.40;;;;;;;17.84;29.14;99123.55;105068;1256;60264;-62
2023/12/26 01:07:29;;;;;;;7.50;2.50;;;;;;;17.87;29.08;99126.84;105896;1256;62609;-58
2023/12/26 01:10:00;;;;;;;3.00;0.70;;;;;;;17.84;29.20;99129.25;105869;1256;59740;-59
2023/12/26 01:12:29;;;;;;;8.10;2.20;;;;;;;17.81;29.36;99117.73;105929;1258;59642;-57
2023/12/26 01:14:57;;;;;;;3.80;0.70;;;;;;;17.79;29.32;99122.52;105864;1260;64633;-56
2023/12/26 01:17:24;;;;;;;3.50;0.50;;;;;;;17.81;29.36;99126.95;105315;1258;61304;-57
2023/12/26 01:19:52;;;;;;;7.00;2.10;;;;;;;17.78;29.33;99128.17;105402;1258;62908;-58
2023/12/26 01:22:20;;;;;;;4.90;1.40;;;;;;;17.77;29.23;99131.92;105364;1256;59643;-59
2023/12/26 01:24:50;;;;;;;5.50;1.50;;;;;;;17.70;29.39;99145.63;105321;1256;60122;-57
2023/12/26 01:27:17;;;;;;;6.90;2.60;;;;;;;17.66;29.33;99155.34;105522;1256;62944;-57
2023/12/26 01:29:46;;;;;;;5.40;0.90;;;;;;;17.66;29.33;99161.52;105562;1253;61364;-58
2023/12/26 01:32:14;;;;;;;3.40;0.70;;;;;;;17.64;29.32;99161.90;105643;1253;62445;-60
2023/12/26 01:34:42;;;;;;;8.00;2.60;;;;;;;17.64;29.54;99164.34;105289;1253;59751;-59
2023/12/26 01:37:10;;;;;;;2.50;0.70;;;;;;;17.64;29.44;99170.57;105743;1256;59624;-58
2023/12/26 01:39:38;;;;;;;8.10;2.60;;;;;;;17.62;29.46;99160.77;105363;1253;64127;-59
2023/12/26 01:42:06;;;;;;;3.70;0.80;;;;;;;17.59;29.45;99161.49;105486;1253;60293;-59
2023/12/26 01:44:34;;;;;;;4.10;0.70;;;;;;;17.56;29.45;99162.39;105698;1255;63903;-62
2023/12/26 01:47:02;;;;;;;5.20;1.80;;;;;;;17.56;29.34;99163.00;105195;1256;59646;-62
2023/12/26 01:49:30;;;;;;;6.00;1.90;;;;;;;17.58;29.29;99164.85;105279;1256;59896;-59
2023/12/26 01:51:58;;;;;;;4.40;1.30;;;;;;;17.58;29.29;99163.25;106008;1257;64291;-59
2023/12/26 01:54:30;;;;;;;6.60;1.50;;;;;;;17.56;29.19;99165.05;105298;1260;60269;-59
2023/12/26 01:56:58;;;;;;;6.80;2.20;;;;;;;17.54;29.13;99168.67;105988;1257;62540;-61
2023/12/26 01:59:26;;;;;;;3.00;1.20;;;;;;;17.57;29.07;99174.88;105835;1256;59644;-60
2023/12/26 02:01:53;;;;;;;4.10;0.50;;;;;;;17.57;29.07;99177.86;106188;1257;59665;-60
2023/12/26 02:04:21;;;;;;;2.50;0.60;;;;;;;17.55;29.25;99175.80;105432;1253;64147;-58
2023/12/26 02:06:49;;;;;;;6.30;2.20;;;;;;;17.52;29.31;99182.09;105292;1258;60414;-60
2023/12/26 02:09:16;;;;;;;3.80;0.60;;;;;;;17.53;29.34;99180.30;105512;1258;63726;-58
2023/12/26 02:11:44;;;;;;;7.90;2.30;;;;;;;17.53;29.54;99183.13;105338;1253;60871;-59
2023/12/26 02:14:12;;;;;;;4.40;1.30;;;;;;;17.49;29.89;99189.57;105316;1253;59764;-60
2023/12/26 02:16:39;;;;;;;7.80;2.20;;;;;;;17.48;29.87;99192.54;105554;1253;73655;-57
2023/12/26 02:19:07;;;;;;;1.60;0.40;;;;;;;17.46;30.14;99194.08;105341;1253;61432;-60
2023/12/26 02:21:35;;;;;;;1.80;0.60;;;;;;;17.46;30.41;99196.30;105790;1253;63664;-57
2023/12/26 02:24:03;;;;;;;6.50;1.70;;;;;;;17.54;30.57;99203.25;105346;1256;60558;-59
2023/12/26 02:26:31;;;;;;;6.60;1.30;;;;;;;17.58;30.75;99201.92;105957;1256;60481;-59
2023/12/26 02:28:58;;;;;;;8.50;2.10;;;;;;;17.57;30.72;99200.61;105278;1253;64959;-57
2023/12/26 02:31:27;;;;;;;2.50;0.70;;;;;;;17.56;30.90;99206.45;106020;1253;61408;-60
2023/12/26 02:33:55;;;;;;;5.60;2.10;;;;;;;17.49;30.94;99218.14;105388;1256;64286;-59
2023/12/26 02:36:23;;;;;;;2.20;0.70;;;;;;;17.45;30.84;99219.01;105377;1254;60589;-59
2023/12/26 02:38:50;;;;;;;8.50;2.40;;;;;;;17.41;30.83;99228.17;105448;1255;60612;-60
2023/12/26 02:41:18;;;;;;;6.80;0.80;;;;;;;17.35;30.71;99230.76;105461;1257;65141;-55
2023/12/26 02:43:45;;;;;;;3.60;1.00;;;;;;;17.34;30.65;99232.27;105597;1256;61143;-58
2023/12/26 02:46:13;;;;;;;6.20;2.30;;;;;;;17.33;30.58;99231.73;105226;1258;63727;-58
2023/12/26 02:48:41;;;;;;;3.40;0.90;;;;;;;17.26;30.59;99235.20;105629;1257;60614;-59
2023/12/26 02:51:09;;;;;;;8.80;2.80;;;;;;;17.28;30.66;99236.38;105526;1257;60493;-59
2023/12/26 02:53:37;;;;;;;5.70;0.70;;;;;;;17.28;30.53;99245.23;105334;1253;63668;-56
2023/12/26 02:56:04;;;;;;;11.10;2.00;;;;;;;17.22;30.64;99248.71;105698;1258;61349;-58
2023/12/26 02:58:33;;;;;;;4.80;1.50;;;;;;;17.25;30.67;99255.81;105338;1254;63811;-52
2023/12/26 03:01:00;;;;;;;7.60;2.40;;;;;;;17.27;30.67;99262.66;105847;1254;60461;-58
2023/12/26 03:03:28;;;;;;;7.10;2.90;;;;;;;17.28;30.61;99264.17;105324;1258;60302;-57
2023/12/26 03:05:56;;;;;;;9.30;1.90;;;;;;;17.29;30.40;99256.61;105986;1253;63727;-59
2023/12/26 03:08:24;;;;;;;3.40;0.90;;;;;;;17.31;30.25;99259.45;105487;1253;61291;-59
2023/12/26 03:10:52;;;;;;;6.90;2.70;;;;;;;17.36;29.92;99253.96;105342;1256;63851;-59
2023/12/26 03:13:19;;;;;;;3.70;1.00;;;;;;;17.45;29.69;99261.39;105378;1253;60448;-56
2023/12/26 03:15:47;;;;;;;7.60;2.60;;;;;;;17.46;29.75;99264.38;105502;1256;60530;-56
2023/12/26 03:18:16;;;;;;;3.50;0.80;;;;;;;17.44;29.64;99273.15;105401;1258;64919;-59
2023/12/26 03:20:44;;;;;;;5.80;1.80;;;;;;;17.43;29.71;99284.15;105616;1256;61503;-59
2023/12/26 03:23:12;;;;;;;4.90;1.20;;;;;;;17.41;29.72;99287.06;105284;1262;62449;-58
2023/12/26 03:25:40;;;;;;;10.60;3.60;;;;;;;17.39;29.58;99283.55;105313;1257;60565;-58
2023/12/26 03:28:07;;;;;;;6.40;1.80;;;;;;;17.37;29.70;99286.98;105770;1253;60523;-58
2023/12/26 03:30:35;;;;;;;4.90;1.60;;;;;;;17.27;29.73;99289.48;105360;1253;65022;-61
2023/12/26 03:33:03;;;;;;;6.40;3.00;;;;;;;17.25;29.67;99292.21;105323;1258;60644;-60
2023/12/26 03:35:31;;;;;;;7.90;1.50;;;;;;;17.27;29.83;99298.35;106002;1256;62435;-61
2023/12/26 03:37:58;;;;;;;8.40;2.70;;;;;;;17.25;29.71;99306.60;105474;1259;60496;-62
2023/12/26 03:40:26;;;;;;;11.80;1.70;;;;;;;17.24;29.74;99310.08;105322;1253;60323;-60
2023/12/26 03:42:55;;;;;;;6.60;0.80;;;;;;;17.25;29.82;99308.16;105898;1258;65489;-63
2023/12/26 03:45:26;;;;;;;4.60;1.00;;;;;;;17.24;29.81;99312.20;106077;1253;61528;-60
2023/12/26 03:47:54;;;;;;;7.20;2.30;;;;;;;17.20;29.81;99310.37;105478;1258;63720;-62
2023/12/26 03:50:22;;;;;;;3.40;1.20;;;;;;;17.21;29.86;99317.65;105990;1258;60431;-59
2023/12/26 03:52:50;;;;;;;5.90;2.00;;;;;;;17.21;29.86;99321.77;105347;1258;60608;-59
2023/12/26 03:55:17;;;;;;;4.30;0.90;;;;;;;17.20;30.05;99327.71;105392;1259;64853;-59
2023/12/26 03:57:46;;;;;;;6.80;2.50;;;;;;;17.18;30.03;99328.84;105373;1259;61505;-57
2023/12/26 04:00:15;;;;;;;3.60;0.70;;;;;;;17.14;30.13;99328.02;105603;1254;63727;-56
2023/12/26 04:02:45;;;;;;;4.90;0.70;;;;;;;17.17;30.10;99325.60;105458;1256;60429;-57
2023/12/26 04:05:13;;;;;;;3.40;0.70;;;;;;;17.26;30.03;99328.81;105403;1254;60460;-59
2023/12/26 04:07:41;;;;;;;8.40;2.70;;;;;;;17.33;30.20;99328.70;105266;1253;64926;-58
2023/12/26 04:10:09;;;;;;;4.20;1.60;;;;;;;17.38;30.04;99327.69;105354;1257;60343;-59
2023/12/26 04:12:37;;;;;;;8.30;2.30;;;;;;;17.42;30.21;99335.16;105333;1257;63658;-60
2023/12/26 04:15:05;;;;;;;3.40;0.40;;;;;;;17.43;30.06;99341.68;105812;1256;60557;-59
2023/12/26 04:17:33;;;;;;;3.80;0.90;;;;;;;17.41;29.82;99351.60;105740;1261;60965;-60
2023/12/26 04:20:01;;;;;;;5.60;0.80;;;;;;;17.32;29.83;99361.07;105761;1256;63703;-58
2023/12/26 04:22:30;;;;;;;6.80;2.10;;;;;;;17.25;29.97;99362.79;105724;1253;61316;-58
2023/12/26 04:24:58;;;;;;;3.80;1.00;;;;;;;17.23;29.82;99363.89;105711;1258;63756;-57
2023/12/26 04:27:26;;;;;;;10.10;3.10;;;;;;;17.21;29.85;99365.88;106061;1253;60589;-58
2023/12/26 04:29:54;;;;;;;3.20;0.90;;;;;;;17.17;29.88;99365.48;106183;1256;60443;-59
2023/12/26 04:32:23;;;;;;;2.50;0.80;;;;;;;17.17;29.95;99364.45;105270;1253;63666;-57
2023/12/26 04:34:51;;;;;;;3.20;0.60;;;;;;;17.17;30.11;99361.13;105434;1257;60600;-57
2023/12/26 04:37:19;;;;;;;6.00;1.20;;;;;;;17.17;30.21;99362.81;105301;1256;63752;-58
2023/12/26 04:39:47;;;;;;;15.40;5.90;;;;;;;17.23;30.06;99363.39;105305;1256;60637;-56
2023/12/26 04:42:14;;;;;;;17.80;9.30;;;;;;;17.29;30.19;99366.40;105412;1256;60442;-55
2023/12/26 04:44:42;;;;;;;8.90;3.10;;;;;;;17.32;30.29;99364.83;105541;1258;63740;-55
2023/12/26 04:47:10;;;;;;;7.10;2.10;;;;;;;17.28;30.63;99368.80;105449;1255;60528;-57
2023/12/26 04:49:37;;;;;;;9.40;3.20;;;;;;;17.23;30.98;99382.45;105605;1259;64294;-59
2023/12/26 04:52:05;;;;;;;3.80;1.20;;;;;;;17.18;31.27;99389.07;105784;1259;60560;-58
2023/12/26 04:54:33;;;;;;;3.00;0.90;;;;;;;17.24;31.10;99388.02;105397;1255;60928;-58
2023/12/26 04:57:00;;;;;;;6.80;2.50;;;;;;;17.26;30.87;99398.89;105337;1253;64945;-59
2023/12/26 04:59:28;;;;;;;4.10;1.10;;;;;;;17.25;30.63;99411.64;105330;1259;61308;-59
2023/12/26 05:01:56;;;;;;;1.70;0.50;;;;;;;17.27;30.59;99412.65;106056;1252;63753;-59
2023/12/26 05:04:24;;;;;;;4.40;1.00;;;;;;;17.28;30.49;99416.78;105308;1258;60527;-57
2023/12/26 05:06:51;;;;;;;8.50;2.70;;;;;;;17.31;30.50;99428.20;105332;1258;60458;-56
2023/12/26 05:09:19;;;;;;;4.40;0.70;;;;;;;17.29;30.32;99430.20;105308;1259;65174;-57
2023/12/26 05:11:47;;;;;;;2.20;0.70;;;;;;;17.25;30.08;99431.85;105312;1254;61864;-58
2023/12/26 05:14:14;;;;;;;8.00;2.50;;;;;;;17.22;30.03;99436.84;105299;1259;63770;-59
2023/12/26 05:16:42;;;;;;;6.10;2.40;;;;;;;17.18;29.97;99441.73;105517;1255;60587;-59
2023/12/26 05:19:12;;;;;;;2.60;0.80;;;;;;;17.14;29.85;99440.12;105489;1253;60502;-61
2023/12/26 05:21:40;;;;;;;4.00;1.60;;;;;;;17.10;29.88;99450.54;105814;1254;72778;-58
2023/12/26 05:24:08;;;;;;;3.00;0.70;;;;;;;17.03;29.83;99453.08;105426;1258;60475;-59
2023/12/26 05:26:40;;;;;;;8.70;3.30;;;;;;;17.01;29.93;99454.30;105668;1256;63739;-60
2023/12/26 05:29:08;;;;;;;3.70;1.10;;;;;;;17.00;29.94;99452.88;105598;1259;60459;-58
2023/12/26 05:31:37;;;;;;;7.20;1.70;;;;;;;16.95;30.05;99462.08;105583;1258;60561;-58
2023/12/26 05:34:10;;;;;;;8.30;2.70;;;;;;;16.95;29.92;99467.59;106469;1254;65776;-58
2023/12/26 05:36:38;;;;;;;4.50;1.60;;;;;;;16.93;29.90;99477.29;105254;1258;61818;-57
2023/12/26 05:39:06;;;;;;;4.30;1.40;;;;;;;16.90;29.84;99494.02;105626;1256;63757;-57
2023/12/26 05:41:35;;;;;;;7.40;1.40;;;;;;;16.89;29.98;99492.46;105982;1255;60566;-56
2023/12/26 05:44:03;;;;;;;8.80;2.60;;;;;;;16.89;29.90;99490.86;105869;1256;60449;-56
2023/12/26 05:46:30;;;;;;;5.00;1.10;;;;;;;16.86;29.86;99490.78;105377;1258;63616;-58
2023/12/26 05:48:59;;;;;;;7.80;1.80;;;;;;;16.83;29.92;99491.70;106011;1253;61827;-60
2023/12/26 05:51:28;;;;;;;8.90;2.60;;;;;;;16.82;29.87;99487.55;105265;1259;63707;-56
2023/12/26 05:53:56;;;;;;;8.10;1.50;;;;;;;16.84;29.92;99490.66;105936;1260;60429;-57
2023/12/26 05:56:24;;;;;;;5.60;2.00;;;;;;;16.77;29.95;99489.78;105506;1254;60450;-58
2023/12/26 05:58:51;;;;;;;10.20;2.20;;;;;;;16.67;30.10;99498.23;105277;1260;64860;-58
2023/12/26 06:01:19;;;;;;;11.80;4.80;;;;;;;16.64;30.09;99504.60;105362;1259;61529;-60
2023/12/26 06:03:47;;;;;;;6.40;1.10;;;;;;;16.63;30.13;99507.58;105405;1259;63844;-57
2023/12/26 06:06:15;;;;;;;2.80;0.70;;;;;;;16.71;30.09;99509.63;105423;1258;60440;-58
2023/12/26 06:08:43;;;;;;;9.30;3.00;;;;;;;16.82;30.09;99511.11;105314;1255;60462;-58
2023/12/26 06:11:11;;;;;;;3.40;0.80;;;;;;;16.91;29.90;99505.15;105347;1259;63641;-59
2023/12/26 06:13:40;;;;;;;4.60;1.00;;;;;;;16.93;29.99;99508.69;105307;1259;62119;-57
2023/12/26 06:16:08;;;;;;;3.20;0.60;;;;;;;16.93;30.01;99507.05;105598;1260;64125;-57
2023/12/26 06:18:36;;;;;;;8.70;2.90;;;;;;;16.95;30.06;99508.05;105593;1259;60468;-56
2023/12/26 06:21:04;;;;;;;4.00;1.30;;;;;;;16.95;30.13;99514.27;105407;1257;60530;-57
2023/12/26 06:23:32;;;;;;;14.80;6.00;;;;;;;16.95;30.16;99521.47;105846;1257;63698;-58
2023/12/26 06:26:00;;;;;;;11.80;4.10;;;;;;;16.94;30.44;99530.65;105968;1256;73000;-57
2023/12/26 06:28:28;;;;;;;24.20;12.50;;;;;;;16.94;30.65;99537.52;105300;1260;62529;-59
2023/12/26 06:30:56;;;;;;;8.60;3.20;;;;;;;16.95;30.67;99536.96;105316;1259;60464;-65
2023/12/26 06:33:27;;;;;;;11.00;3.70;;;;;;;16.95;30.80;99544.67;106046;1257;60324;-65
2023/12/26 06:35:55;;;;;;;14.50;7.30;;;;;;;16.93;30.97;99548.46;106070;1260;64953;-62
2023/12/26 06:38:23;;;;;;;5.40;1.90;;;;;;;16.87;31.38;99553.61;105299;1253;61391;-62
2023/12/26 06:40:51;;;;;;;5.90;1.50;;;;;;;16.83;31.65;99559.18;105223;1258;62448;-64
2023/12/26 06:43:18;;;;;;;6.50;2.60;;;;;;;16.80;31.75;99565.42;105431;1257;60538;-63
2023/12/26 06:45:46;;;;;;;8.70;1.50;;;;;;;16.79;31.67;99564.39;105218;1259;60557;-61
2023/12/26 06:48:14;;;;;;;5.80;0.80;;;;;;;16.85;31.82;99564.45;105303;1259;64894;-62
2023/12/26 06:50:42;;;;;;;5.50;1.70;;;;;;;16.90;31.80;99570.95;105601;1256;60533;-60
2023/12/26 06:53:09;;;;;;;10.60;3.20;;;;;;;16.97;31.63;99573.90;105449;1259;63694;-61
2023/12/26 06:55:37;;;;;;;6.20;0.90;;;;;;;17.03;31.74;99575.41;105290;1260;60447;-66
2023/12/26 06:58:05;;;;;;;6.00;1.30;;;;;;;17.05;31.62;99579.65;105188;1259;60368;-68
2023/12/26 07:00:33;;;;;;;8.30;3.00;;;;;;;17.04;31.50;99581.64;105281;1258;64916;-62
2023/12/26 07:03:03;;;;;;;5.20;1.20;;;;;;;17.02;31.38;99582.52;105739;1260;60724;-66
2023/12/26 07:05:31;;;;;;;9.00;3.30;;;;;;;16.99;31.33;99582.71;105788;1260;62461;-62
2023/12/26 07:07:58;;;;;;;5.10;1.40;;;;;;;16.99;31.38;99590.84;105214;1260;60945;-63
2023/12/26 07:10:26;;;;;;;5.30;1.10;;;;;;;17.02;31.48;99586.03;105911;1259;60999;-64
2023/12/26 07:12:57;;;;;;;5.40;1.40;;;;;;;17.00;31.45;99591.90;105418;1256;64957;-65
2023/12/26 07:15:25;;;;;;;8.20;2.80;;;;;;;16.94;31.68;99595.98;105261;1263;61575;-62
2023/12/26 07:17:53;;;;;;;3.50;0.90;;;;;;;16.96;31.72;99594.36;105434;1258;63757;-64
2023/12/26 07:20:25;;;;;;;2.50;0.80;;;;;;;17.03;31.56;99596.38;105909;1268;60552;-67
2023/12/26 07:22:53;;;;;;;8.80;2.60;;;;;;;17.13;31.43;99606.79;105308;1259;60540;-67
2023/12/26 07:25:21;;;;;;;5.60;1.10;;;;;;;17.24;31.28;99606.06;105377;1260;63804;-66
2023/12/26 07:27:49;;;;;;;9.70;3.00;;;;;;;17.29;31.14;99611.89;105306;1257;61551;-63
2023/12/26 07:30:17;;;;;;;3.60;1.70;;;;;;;17.26;31.09;99608.98;105435;1254;63690;-64
2023/12/26 07:32:44;;;;;;;5.50;1.10;;;;;;;17.24;31.04;99603.41;105213;1254;60587;-63
2023/12/26 07:35:15;;;;;;;3.80;1.00;;;;;;;17.23;30.97;99609.29;105325;1268;60531;-65
2023/12/26 07:37:42;;;;;;;9.40;2.80;;;;;;;17.22;30.88;99613.60;105294;1257;65440;-65
2023/12/26 07:40:11;;;;;;;5.10;0.90;;;;;;;17.24;30.86;99612.70;105339;1257;60581;-61
2023/12/26 07:42:39;;;;;;;10.30;3.10;;;;;;;17.21;30.83;99621.95;105567;1259;62437;-61
2023/12/26 07:45:07;;;;;;;5.40;1.60;;;;;;;17.17;30.80;99624.79;105271;1254;61432;-63
2023/12/26 07:47:35;;;;;;;2.00;1.00;;;;;;;17.15;30.79;99641.57;105628;1254;60530;-61
2023/12/26 07:50:04;;;;;;;16.30;2.00;;;;;;;17.16;30.72;99625.84;105300;1254;64963;-62
2023/12/26 07:52:35;;;;;;;4.80;1.40;;;;;;;17.22;30.82;99626.08;105679;1257;60543;-60
2023/12/26 07:55:03;;;;;;;8.30;1.20;;;;;;;17.22;30.82;99625.72;105296;1254;63685;-64
2023/12/26 07:57:31;;;;;;;8.00;2.20;;;;;;;17.30;30.61;99629.42;105810;1258;60531;-64
2023/12/26 07:59:59;;;;;;;3.50;1.10;;;;;;;17.38;30.58;99638.19;105265;1254;60535;-65
2023/12/26 08:02:27;;;;;;;6.60;1.00;;;;;;;17.46;30.41;99638.73;105356;1260;64875;-63
2023/12/26 08:04:54;;;;;;;3.90;1.10;;;;;;;17.60;30.27;99640.40;105320;1256;61538;-63
2023/12/26 08:07:22;;;;;;;7.50;2.70;;;;;;;17.70;29.93;99644.00;105202;1259;62445;-65
2023/12/26 08:09:49;;;;;;;3.00;0.80;;;;;;;17.73;29.81;99651.55;109047;1254;58470;-66
2023/12/26 08:12:17;;;;;;;8.80;2.40;;;;;;;17.79;29.62;99649.56;107072;1255;59725;-64
2023/12/26 08:14:45;;;;;;;4.60;0.80;;;;;;;17.81;29.69;99643.80;105328;1258;63678;-63
2023/12/26 08:17:13;;;;;;;10.60;4.10;;;;;;;17.82;29.75;99644.02;105333;1257;60485;-61
2023/12/26 08:19:40;;;;;;;7.60;1.60;;;;;;;17.78;29.70;99642.09;105306;1257;62617;-63
2023/12/26 08:22:08;;;;;;;13.10;4.60;;;;;;;17.83;29.77;99637.04;105486;1258;60573;-64
2023/12/26 08:24:36;;;;;;;9.60;1.90;;;;;;;17.91;29.61;99631.27;105283;1255;60477;-61
2023/12/26 08:27:03;;;;;;;8.40;3.40;;;;;;;17.92;29.55;99643.23;105304;1254;64997;-63
2023/12/26 08:29:31;;;;;;;3.10;1.00;;;;;;;17.98;29.46;99643.58;105426;1254;61401;-64
2023/12/26 08:31:58;;;;;;;5.70;0.80;;;;;;;18.01;29.35;99647.33;105272;1260;63691;-61
2023/12/26 08:34:26;;;;;;;12.10;3.10;;;;;;;17.98;29.42;99647.98;105322;1257;60548;-61
2023/12/26 08:36:54;;;;;;;7.50;1.80;;;;;;;17.99;29.46;99653.03;106168;1257;60357;-61
2023/12/26 08:39:21;;;;;;;12.10;3.10;;;;;;;18.05;29.19;99647.52;105293;1258;63746;-61
2023/12/26 08:41:49;;;;;;;3.20;1.50;;;;;;;18.13;29.13;99650.27;105447;1255;61680;-63
2023/12/26 08:44:17;;;;;;;14.50;3.70;;;;;;;18.13;29.13;99652.31;105291;1255;64192;-69
2023/12/26 08:46:45;;;;;;;6.90;1.40;;;;;;;18.13;28.86;99654.61;105306;1253;60466;-65
2023/12/26 08:49:12;;;;;;;6.90;1.60;;;;;;;18.20;28.96;99655.24;105335;1254;60588;-64
2023/12/26 08:51:40;;;;;;;10.10;3.00;;;;;;;18.30;28.99;99649.20;105567;1254;65420;-64
2023/12/26 08:54:08;;;;;;;8.00;1.50;;;;;;;18.36;28.61;99652.56;105768;1257;61306;-61
2023/12/26 08:56:39;;;;;;;10.70;3.70;;;;;;;18.40;28.60;99651.54;105682;1258;63835;-65
2023/12/26 08:59:07;;;;;;;4.40;1.20;;;;;;;18.42;28.50;99652.16;105695;1255;60482;-66
2023/12/26 09:01:35;;;;;;;12.20;3.40;;;;;;;18.41;28.40;99667.48;105319;1254;60528;-66
2023/12/26 09:04:04;;;;;;;8.30;1.60;;;;;;;18.45;28.34;99659.54;105641;1255;63677;-68
2023/12/26 09:06:32;;;;;;;14.40;2.80;;;;;;;18.50;28.17;99670.88;105657;1257;60434;-62
2023/12/26 09:09:00;;;;;;;5.20;1.20;;;;;;;18.48;28.15;99669.80;105823;1254;62563;-64
2023/12/26 09:11:31;;;;;;;8.70;2.80;;;;;;;18.49;28.05;99673.09;105786;1254;60538;-61
2023/12/26 09:13:58;;;;;;;14.10;4.60;;;;;;;18.47;28.19;99691.30;105269;1255;60402;-64
2023/12/26 09:16:26;;;;;;;7.60;1.30;;;;;;;18.38;28.32;99702.33;105267;1259;64949;-64
2023/12/26 09:18:54;;;;;;;11.10;3.00;;;;;;;18.47;28.40;99701.23;105239;1253;62016;-67
2023/12/26 09:21:22;;;;;;;5.50;0.90;;;;;;;18.56;28.32;99702.26;105368;1255;63740;-63
2023/12/26 09:23:49;;;;;;;9.00;2.70;;;;;;;18.65;28.43;99704.88;105235;1260;60593;-63
2023/12/26 09:26:24;;;;;;;4.40;1.10;;;;;;;18.66;28.33;99712.77;105506;1253;61626;-65
2023/12/26 09:28:52;;;;;;;8.20;2.70;;;;;;;18.75;28.17;99698.84;105350;1256;65185;-63
2023/12/26 09:31:21;;;;;;;14.30;3.40;;;;;;;18.83;28.23;99692.12;105292;1254;61451;-64
2023/12/26 09:33:48;;;;;;;4.00;0.90;;;;;;;18.94;28.19;99697.79;105364;1254;74956;-63
2023/12/26 09:36:16;;;;;;;9.40;3.00;;;;;;;19.02;28.11;99699.52;105268;1254;60626;-66
2023/12/26 09:38:44;;;;;;;11.30;2.50;;;;;;;19.03;27.93;99700.80;105389;1255;60453;-65
2023/12/26 09:41:12;;;;;;;7.10;1.90;;;;;;;19.02;27.77;99702.20;105434;1254;63788;-65
2023/12/26 09:43:40;;;;;;;9.00;2.50;;;;;;;19.09;27.77;99700.06;105498;1258;70583;-65
2023/12/26 09:46:08;;;;;;;7.80;1.50;;;;;;;19.21;27.52;99693.70;105254;1257;63693;-60
2023/12/26 09:48:36;;;;;;;12.40;2.70;;;;;;;19.23;27.50;99691.77;105406;1256;60645;-63
2023/12/26 09:51:07;;;;;;;4.50;1.20;;;;;;;19.26;27.45;99693.31;105784;1257;60368;-63
2023/12/26 09:53:35;;;;;;;11.40;2.80;;;;;;;19.26;27.51;99687.95;105238;1257;64969;-63
2023/12/26 09:56:03;;;;;;;9.40;2.90;;;;;;;19.32;27.58;99679.35;105256;1260;60522;-63
2023/12/26 09:58:31;;;;;;;4.50;1.20;;;;;;;19.43;27.68;99676.70;105848;1254;62508;-65
2023/12/26 10:00:59;;;;;;;10.30;2.60;;;;;;;19.44;27.27;99687.66;105325;1254;60514;-61
2023/12/26 10:03:26;;;;;;;3.80;0.80;;;;;;;19.40;27.18;99686.86;105442;1254;60412;-67
2023/12/26 10:05:57;;;;;;;6.70;2.60;;;;;;;19.41;27.07;99683.09;106928;1254;63672;-66
2023/12/26 10:08:25;;;;;;;4.10;1.20;;;;;;;19.45;26.93;99685.73;105349;1257;61480;-69
2023/12/26 10:10:53;;;;;;;11.50;3.30;;;;;;;19.47;27.07;99688.25;105508;1253;65989;-61
2023/12/26 10:13:20;;;;;;;8.50;2.60;;;;;;;19.50;26.95;99695.38;105287;1257;61842;-64
2023/12/26 10:15:48;;;;;;;6.70;2.30;;;;;;;19.57;26.90;99696.34;105289;1257;59781;-62
2023/12/26 10:18:16;;;;;;;8.80;2.60;;;;;;;19.61;26.77;99700.42;105299;1255;63937;-63
2023/12/26 10:20:44;;;;;;;3.50;0.90;;;;;;;19.67;26.69;99696.09;105285;1254;62286;-67
2023/12/26 10:23:11;;;;;;;8.20;2.10;;;;;;;19.72;26.62;99698.09;105328;1254;66045;-64
2023/12/26 10:25:39;;;;;;;9.50;2.30;;;;;;;19.79;26.61;99698.43;105208;1254;60454;-64
2023/12/26 10:28:07;;;;;;;7.90;2.40;;;;;;;19.83;26.52;99715.21;105223;1254;326641;-62
2023/12/26 10:42:56;;;;;;;9.60;2.80;;;;;;;18.02;28.90;99702.53;103116;1285;603548;-64
2023/12/26 10:45:24;;;;;;;9.00;2.40;;;;;;;19.93;26.43;99678.15;104961;1266;113796;-64
2023/12/26 10:47:52;;;;;;;8.90;2.90;;;;;;;19.98;26.20;99670.35;105313;1266;61136;-66
2023/12/26 10:50:20;;;;;;;6.70;1.90;;;;;;;20.05;26.34;99661.25;104432;1270;63544;-62
2023/12/26 10:53:08;;;;;;;9.20;2.70;;;;;;;20.12;26.39;99651.69;104411;1267;62466;-66
2023/12/26 10:55:36;;;;;;;9.60;2.90;;;;;;;20.16;26.50;99651.00;104358;1265;74950;-66
2023/12/26 10:58:31;;;;;;;7.70;2.40;;;;;;;20.17;26.45;99641.30;104438;1272;59238;-62
2023/12/26 11:00:59;;;;;;;8.60;2.80;;;;;;;20.24;26.63;99644.27;105150;1265;59634;-63
2023/12/26 13:51:45;;;;;;;7.30;3.50;;;;;;;21.27;35.57;99543.38;104911;1257;59714;-66
2023/12/26 13:54:13;;;;;;;7.50;3.20;;;;;;;21.32;35.81;99541.87;104968;1264;66649;-65
2023/12/26 13:56:42;;;;;;;6.20;3.40;;;;;;;21.39;35.85;99539.91;105137;1258;60305;-63
2023/12/26 13:59:09;;;;;;;7.10;3.60;;;;;;;21.40;35.97;99532.31;104904;1258;62870;-65
2023/12/26 14:02:14;;;;;;;9.10;3.80;;;;;;;21.40;36.05;99527.34;105094;1258;61436;-64
2023/12/26 14:04:42;;;;;;;6.80;3.70;;;;;;;21.41;36.09;99512.44;105539;1256;59716;-64
2023/12/26 14:07:49;;;;;;;6.80;3.60;;;;;;;21.38;36.17;99508.37;105127;1256;75690;-67
2023/12/26 14:10:17;;;;;;;7.40;4.00;;;;;;;21.44;36.15;99504.48;105259;1260;60657;-66
2023/12/26 14:13:26;;;;;;;7.90;3.30;;;;;;;21.51;36.12;99486.53;105385;1256;66232;-67
2023/12/26 14:16:32;;;;;;;7.10;4.00;;;;;;;21.63;36.00;99473.80;105182;1256;59755;-65
2023/12/26 14:18:59;;;;;;;8.50;4.30;;;;;;;21.72;36.07;99463.81;106000;1256;60863;-65
2023/12/26 14:22:05;;;;;;;9.60;5.30;;;;;;;21.75;36.02;99461.60;105764;1260;62851;-63
2023/12/26 14:25:11;;;;;;;9.00;4.90;;;;;;;21.75;35.90;99461.20;105157;1256;61224;-66
2023/12/26 14:27:39;;;;;;;11.40;5.70;;;;;;;21.78;35.80;99460.31;105047;1259;62677;-60
2023/12/26 14:30:45;;;;;;;10.20;6.30;;;;;;;21.79;35.88;99451.04;105555;1257;59706;-65
2023/12/26 14:33:19;;;;;;;10.40;4.00;;;;;;;21.82;35.88;99437.41;105287;1260;59669;-62